Wileyville, West Virginia
Current Conditions -  °F | °C
As of 1:07 PM on Wednesday 26 Nov 2014 (Local Time) from KCKB Reporting Station
Light Snow Light Snow  
Wind Chill: 34°   Ceiling: 200
Heat Index: 34°   Visibility: 1mi
Dew Point: 33°   Wind: 3mph
Humidity: 96%   Direction: 300°WNW
Pressure: 30"   Gusts: NA
Location:  39.63°N, 80.67°W
Report Text: KCKB 261807Z 30003KT 1SM -SN BR OVC002 01/01 A3000 RMK AO2 P0000 T00110006 RVRNO
Loading
Personal Weather Stations






























Interactive Weather Map New forecast layout! Learn more

10-Day Weather Forecast

Advertisements
Track Severe Weather on mobile